sensor_id;sensor_type;location;lat;lon;timestamp;P1;durP1;ratioP1;P2;durP2;ratioP2
2658;SDS011;1339;53.304;10.406;2023-04-03T00:01:40;2.75;;;2.00;;
2658;SDS011;1339;53.304;10.406;2023-04-03T00:04:07;3.25;;;2.45;;
2658;SDS011;1339;53.304;10.406;2023-04-03T00:06:34;2.85;;;1.80;;
2658;SDS011;1339;53.304;10.406;2023-04-03T00:09:01;5.00;;;1.95;;
2658;SDS011;1339;53.304;10.406;2023-04-03T00:11:28;3.45;;;1.55;;
2658;SDS011;1339;53.304;10.406;2023-04-03T00:13:55;6.55;;;2.15;;
2658;SDS011;1339;53.304;10.406;2023-04-03T00:16:23;2.25;;;1.90;;
2658;SDS011;1339;53.304;10.406;2023-04-03T00:18:50;6.63;;;1.90;;
2658;SDS011;1339;53.304;10.406;2023-04-03T00:21:17;3.45;;;2.03;;
2658;SDS011;1339;53.304;10.406;2023-04-03T00:23:44;2.40;;;2.00;;
2658;SDS011;1339;53.304;10.406;2023-04-03T00:26:11;4.95;;;2.00;;
2658;SDS011;1339;53.304;10.406;2023-04-03T00:28:38;8.18;;;2.47;;
2658;SDS011;1339;53.304;10.406;2023-04-03T00:31:05;5.15;;;2.40;;
2658;SDS011;1339;53.304;10.406;2023-04-03T00:33:33;4.53;;;2.17;;
2658;SDS011;1339;53.304;10.406;2023-04-03T00:36:04;6.13;;;2.28;;
2658;SDS011;1339;53.304;10.406;2023-04-03T00:38:31;3.53;;;1.40;;
2658;SDS011;1339;53.304;10.406;2023-04-03T00:40:58;3.50;;;2.20;;
2658;SDS011;1339;53.304;10.406;2023-04-03T00:43:25;3.35;;;1.90;;
2658;SDS011;1339;53.304;10.406;2023-04-03T00:45:53;2.50;;;2.30;;
2658;SDS011;1339;53.304;10.406;2023-04-03T00:48:20;3.58;;;2.33;;
2658;SDS011;1339;53.304;10.406;2023-04-03T00:50:49;2.75;;;1.60;;
2658;SDS011;1339;53.304;10.406;2023-04-03T00:53:18;3.28;;;2.25;;
2658;SDS011;1339;53.304;10.406;2023-04-03T00:55:46;4.40;;;2.50;;
2658;SDS011;1339;53.304;10.406;2023-04-03T00:58:13;3.95;;;2.45;;
2658;SDS011;1339;53.304;10.406;2023-04-03T01:00:42;5.18;;;2.00;;
2658;SDS011;1339;53.304;10.406;2023-04-03T01:03:10;4.30;;;2.40;;
2658;SDS011;1339;53.304;10.406;2023-04-03T01:05:37;4.25;;;2.30;;
2658;SDS011;1339;53.304;10.406;2023-04-03T01:08:06;7.32;;;2.33;;
2658;SDS011;1339;53.304;10.406;2023-04-03T01:10:33;4.90;;;2.30;;
2658;SDS011;1339;53.304;10.406;2023-04-03T01:13:00;3.97;;;2.72;;
2658;SDS011;1339;53.304;10.406;2023-04-03T01:15:27;4.10;;;2.53;;
2658;SDS011;1339;53.304;10.406;2023-04-03T01:17:57;8.43;;;2.38;;
2658;SDS011;1339;53.304;10.406;2023-04-03T01:20:36;7.22;;;2.80;;
2658;SDS011;1339;53.304;10.406;2023-04-03T01:23:14;3.65;;;1.60;;
2658;SDS011;1339;53.304;10.406;2023-04-03T01:25:45;2.47;;;1.85;;
2658;SDS011;1339;53.304;10.406;2023-04-03T01:28:13;4.25;;;2.40;;
2658;SDS011;1339;53.304;10.406;2023-04-03T01:30:41;3.45;;;2.17;;
2658;SDS011;1339;53.304;10.406;2023-04-03T01:33:10;3.05;;;1.90;;
2658;SDS011;1339;53.304;10.406;2023-04-03T01:35:37;3.65;;;2.70;;
2658;SDS011;1339;53.304;10.406;2023-04-03T01:38:04;3.53;;;1.83;;
2658;SDS011;1339;53.304;10.406;2023-04-03T01:40:32;6.40;;;3.22;;
2658;SDS011;1339;53.304;10.406;2023-04-03T01:42:59;3.78;;;2.00;;
2658;SDS011;1339;53.304;10.406;2023-04-03T01:45:26;7.32;;;2.63;;
2658;SDS011;1339;53.304;10.406;2023-04-03T01:47:54;5.80;;;2.80;;
2658;SDS011;1339;53.304;10.406;2023-04-03T01:50:22;8.13;;;2.70;;
2658;SDS011;1339;53.304;10.406;2023-04-03T01:52:49;4.88;;;2.35;;
2658;SDS011;1339;53.304;10.406;2023-04-03T01:55:16;6.10;;;2.30;;
2658;SDS011;1339;53.304;10.406;2023-04-03T01:57:43;4.32;;;2.17;;
2658;SDS011;1339;53.304;10.406;2023-04-03T02:00:10;3.85;;;3.17;;
2658;SDS011;1339;53.304;10.406;2023-04-03T02:02:37;5.55;;;2.58;;
2658;SDS011;1339;53.304;10.406;2023-04-03T02:05:05;2.75;;;1.95;;
2658;SDS011;1339;53.304;10.406;2023-04-03T02:07:33;3.85;;;2.65;;
2658;SDS011;1339;53.304;10.406;2023-04-03T02:10:00;5.85;;;2.90;;
2658;SDS011;1339;53.304;10.406;2023-04-03T02:12:27;5.70;;;2.72;;
2658;SDS011;1339;53.304;10.406;2023-04-03T02:14:54;4.93;;;3.35;;
2658;SDS011;1339;53.304;10.406;2023-04-03T02:17:21;6.43;;;2.35;;
2658;SDS011;1339;53.304;10.406;2023-04-03T02:19:48;7.05;;;3.25;;
2658;SDS011;1339;53.304;10.406;2023-04-03T02:22:15;3.35;;;2.45;;
2658;SDS011;1339;53.304;10.406;2023-04-03T02:24:43;7.28;;;2.78;;
2658;SDS011;1339;53.304;10.406;2023-04-03T02:27:10;7.25;;;2.88;;
2658;SDS011;1339;53.304;10.406;2023-04-03T02:29:37;5.25;;;2.70;;
2658;SDS011;1339;53.304;10.406;2023-04-03T02:32:04;5.57;;;2.63;;
2658;SDS011;1339;53.304;10.406;2023-04-03T02:34:32;8.70;;;3.17;;
2658;SDS011;1339;53.304;10.406;2023-04-03T02:36:59;4.38;;;2.10;;
2658;SDS011;1339;53.304;10.406;2023-04-03T02:39:25;6.47;;;2.83;;
2658;SDS011;1339;53.304;10.406;2023-04-03T02:41:54;5.22;;;2.42;;
2658;SDS011;1339;53.304;10.406;2023-04-03T02:44:21;5.55;;;2.75;;
2658;SDS011;1339;53.304;10.406;2023-04-03T02:46:48;4.63;;;2.85;;
2658;SDS011;1339;53.304;10.406;2023-04-03T02:49:15;6.03;;;3.20;;
2658;SDS011;1339;53.304;10.406;2023-04-03T02:51:42;3.10;;;2.70;;
2658;SDS011;1339;53.304;10.406;2023-04-03T02:54:09;6.28;;;2.72;;
2658;SDS011;1339;53.304;10.406;2023-04-03T02:56:36;4.15;;;2.63;;
2658;SDS011;1339;53.304;10.406;2023-04-03T02:59:04;5.75;;;2.67;;
2658;SDS011;1339;53.304;10.406;2023-04-03T03:01:31;3.75;;;2.75;;
2658;SDS011;1339;53.304;10.406;2023-04-03T03:03:58;7.82;;;2.47;;
2658;SDS011;1339;53.304;10.406;2023-04-03T03:06:25;2.42;;;2.15;;
2658;SDS011;1339;53.304;10.406;2023-04-03T03:08:52;6.35;;;2.45;;
2658;SDS011;1339;53.304;10.406;2023-04-03T03:11:20;4.28;;;2.42;;
2658;SDS011;1339;53.304;10.406;2023-04-03T03:13:47;6.18;;;3.50;;
2658;SDS011;1339;53.304;10.406;2023-04-03T03:16:15;3.63;;;3.03;;
2658;SDS011;1339;53.304;10.406;2023-04-03T03:18:42;7.00;;;2.78;;
2658;SDS011;1339;53.304;10.406;2023-04-03T03:21:09;3.47;;;2.00;;
2658;SDS011;1339;53.304;10.406;2023-04-03T03:23:36;6.40;;;3.40;;
2658;SDS011;1339;53.304;10.406;2023-04-03T03:26:04;3.40;;;2.30;;
2658;SDS011;1339;53.304;10.406;2023-04-03T03:28:31;5.35;;;2.67;;
2658;SDS011;1339;53.304;10.406;2023-04-03T03:30:58;4.82;;;2.67;;
2658;SDS011;1339;53.304;10.406;2023-04-03T03:33:27;2.90;;;2.30;;
2658;SDS011;1339;53.304;10.406;2023-04-03T03:35:54;3.45;;;2.30;;
2658;SDS011;1339;53.304;10.406;2023-04-03T03:38:21;5.32;;;2.85;;
2658;SDS011;1339;53.304;10.406;2023-04-03T03:40:48;7.13;;;3.50;;
2658;SDS011;1339;53.304;10.406;2023-04-03T03:43:15;4.80;;;2.35;;
2658;SDS011;1339;53.304;10.406;2023-04-03T03:45:43;3.92;;;3.03;;
2658;SDS011;1339;53.304;10.406;2023-04-03T03:48:10;4.20;;;2.63;;
2658;SDS011;1339;53.304;10.406;2023-04-03T03:50:39;7.45;;;3.03;;
2658;SDS011;1339;53.304;10.406;2023-04-03T03:53:06;4.03;;;3.00;;
2658;SDS011;1339;53.304;10.406;2023-04-03T03:55:33;3.13;;;2.20;;
2658;SDS011;1339;53.304;10.406;2023-04-03T03:58:00;4.70;;;2.17;;
2658;SDS011;1339;53.304;10.406;2023-04-03T04:00:27;6.15;;;2.60;;
2658;SDS011;1339;53.304;10.406;2023-04-03T04:02:53;3.58;;;3.00;;
2658;SDS011;1339;53.304;10.406;2023-04-03T04:05:20;4.75;;;3.05;;
2658;SDS011;1339;53.304;10.406;2023-04-03T04:07:49;3.35;;;2.78;;
2658;SDS011;1339;53.304;10.406;2023-04-03T04:10:16;5.57;;;2.83;;
2658;SDS011;1339;53.304;10.406;2023-04-03T04:12:43;9.45;;;3.03;;
2658;SDS011;1339;53.304;10.406;2023-04-03T04:15:10;4.10;;;2.90;;
2658;SDS011;1339;53.304;10.406;2023-04-03T04:17:37;5.07;;;2.88;;
2658;SDS011;1339;53.304;10.406;2023-04-03T04:20:04;5.47;;;3.10;;
2658;SDS011;1339;53.304;10.406;2023-04-03T04:22:31;3.97;;;3.60;;
2658;SDS011;1339;53.304;10.406;2023-04-03T04:24:59;8.23;;;3.13;;
2658;SDS011;1339;53.304;10.406;2023-04-03T04:27:26;4.75;;;2.75;;
2658;SDS011;1339;53.304;10.406;2023-04-03T04:29:53;5.53;;;2.28;;
2658;SDS011;1339;53.304;10.406;2023-04-03T04:32:20;6.38;;;2.75;;
2658;SDS011;1339;53.304;10.406;2023-04-03T04:34:47;10.55;;;2.72;;
2658;SDS011;1339;53.304;10.406;2023-04-03T04:37:14;4.10;;;3.10;;
2658;SDS011;1339;53.304;10.406;2023-04-03T04:39:41;5.78;;;2.80;;
2658;SDS011;1339;53.304;10.406;2023-04-03T04:42:09;6.45;;;2.60;;
2658;SDS011;1339;53.304;10.406;2023-04-03T04:44:37;7.97;;;2.85;;
2658;SDS011;1339;53.304;10.406;2023-04-03T04:47:04;3.85;;;2.25;;
2658;SDS011;1339;53.304;10.406;2023-04-03T04:49:31;3.00;;;2.30;;
2658;SDS011;1339;53.304;10.406;2023-04-03T04:51:58;5.30;;;3.50;;
2658;SDS011;1339;53.304;10.406;2023-04-03T04:54:25;7.60;;;3.17;;
2658;SDS011;1339;53.304;10.406;2023-04-03T04:56:52;3.58;;;2.75;;
2658;SDS011;1339;53.304;10.406;2023-04-03T04:59:20;5.90;;;3.00;;
2658;SDS011;1339;53.304;10.406;2023-04-03T05:01:47;5.68;;;3.20;;
2658;SDS011;1339;53.304;10.406;2023-04-03T05:04:14;6.28;;;3.33;;
2658;SDS011;1339;53.304;10.406;2023-04-03T05:06:41;5.25;;;3.50;;
2658;SDS011;1339;53.304;10.406;2023-04-03T05:09:09;5.13;;;3.25;;
2658;SDS011;1339;53.304;10.406;2023-04-03T05:11:36;6.47;;;3.50;;
2658;SDS011;1339;53.304;10.406;2023-04-03T05:14:02;4.88;;;3.63;;
2658;SDS011;1339;53.304;10.406;2023-04-03T05:16:32;3.17;;;2.50;;
2658;SDS011;1339;53.304;10.406;2023-04-03T05:18:59;6.57;;;3.20;;
2658;SDS011;1339;53.304;10.406;2023-04-03T05:21:27;3.90;;;2.70;;
2658;SDS011;1339;53.304;10.406;2023-04-03T05:23:57;8.45;;;3.08;;
2658;SDS011;1339;53.304;10.406;2023-04-03T05:26:24;2.75;;;2.55;;
2658;SDS011;1339;53.304;10.406;2023-04-03T05:28:51;4.80;;;2.85;;
2658;SDS011;1339;53.304;10.406;2023-04-03T05:31:18;4.88;;;3.55;;
2658;SDS011;1339;53.304;10.406;2023-04-03T05:33:47;5.72;;;3.67;;
2658;SDS011;1339;53.304;10.406;2023-04-03T05:36:14;6.03;;;3.28;;
2658;SDS011;1339;53.304;10.406;2023-04-03T05:38:41;6.05;;;2.92;;
2658;SDS011;1339;53.304;10.406;2023-04-03T05:41:08;5.20;;;3.30;;
2658;SDS011;1339;53.304;10.406;2023-04-03T05:43:35;7.03;;;2.85;;
2658;SDS011;1339;53.304;10.406;2023-04-03T05:46:03;4.30;;;3.42;;
2658;SDS011;1339;53.304;10.406;2023-04-03T05:48:30;9.63;;;2.95;;
2658;SDS011;1339;53.304;10.406;2023-04-03T05:50:59;7.40;;;2.95;;
2658;SDS011;1339;53.304;10.406;2023-04-03T05:53:27;4.45;;;2.88;;
2658;SDS011;1339;53.304;10.406;2023-04-03T05:55:54;4.07;;;3.05;;
2658;SDS011;1339;53.304;10.406;2023-04-03T05:58:21;2.90;;;2.70;;
2658;SDS011;1339;53.304;10.406;2023-04-03T06:00:48;4.93;;;3.83;;
2658;SDS011;1339;53.304;10.406;2023-04-03T06:03:15;7.38;;;4.00;;
2658;SDS011;1339;53.304;10.406;2023-04-03T06:05:42;6.45;;;4.50;;
2658;SDS011;1339;53.304;10.406;2023-04-03T06:08:10;5.20;;;3.70;;
2658;SDS011;1339;53.304;10.406;2023-04-03T06:10:39;5.25;;;3.95;;
2658;SDS011;1339;53.304;10.406;2023-04-03T06:13:06;8.07;;;3.70;;
2658;SDS011;1339;53.304;10.406;2023-04-03T06:15:33;4.68;;;4.28;;
2658;SDS011;1339;53.304;10.406;2023-04-03T06:18:00;6.80;;;4.20;;
2658;SDS011;1339;53.304;10.406;2023-04-03T06:20:27;8.23;;;4.18;;
2658;SDS011;1339;53.304;10.406;2023-04-03T06:22:54;6.20;;;4.40;;
2658;SDS011;1339;53.304;10.406;2023-04-03T06:25:22;6.03;;;4.57;;
2658;SDS011;1339;53.304;10.406;2023-04-03T06:27:50;4.50;;;4.00;;
2658;SDS011;1339;53.304;10.406;2023-04-03T06:30:17;6.05;;;4.65;;
2658;SDS011;1339;53.304;10.406;2023-04-03T06:32:44;4.97;;;3.80;;
2658;SDS011;1339;53.304;10.406;2023-04-03T06:35:11;5.32;;;3.70;;
2658;SDS011;1339;53.304;10.406;2023-04-03T06:37:38;5.45;;;4.30;;
2658;SDS011;1339;53.304;10.406;2023-04-03T06:40:05;5.93;;;4.80;;
2658;SDS011;1339;53.304;10.406;2023-04-03T06:42:34;7.40;;;4.15;;
2658;SDS011;1339;53.304;10.406;2023-04-03T06:45:01;6.30;;;4.47;;
2658;SDS011;1339;53.304;10.406;2023-04-03T06:47:28;4.65;;;4.00;;
2658;SDS011;1339;53.304;10.406;2023-04-03T06:49:55;7.65;;;4.55;;
2658;SDS011;1339;53.304;10.406;2023-04-03T06:52:22;6.03;;;4.03;;
2658;SDS011;1339;53.304;10.406;2023-04-03T06:54:49;6.50;;;3.67;;
2658;SDS011;1339;53.304;10.406;2023-04-03T06:57:22;7.93;;;3.10;;
2658;SDS011;1339;53.304;10.406;2023-04-03T06:59:50;7.85;;;3.03;;
2658;SDS011;1339;53.304;10.406;2023-04-03T07:02:17;5.28;;;2.85;;
2658;SDS011;1339;53.304;10.406;2023-04-03T07:04:45;3.92;;;2.45;;
2658;SDS011;1339;53.304;10.406;2023-04-03T07:07:12;3.85;;;2.00;;
2658;SDS011;1339;53.304;10.406;2023-04-03T07:09:40;3.95;;;2.45;;
2658;SDS011;1339;53.304;10.406;2023-04-03T07:12:07;3.75;;;1.85;;
2658;SDS011;1339;53.304;10.406;2023-04-03T07:14:34;4.28;;;2.22;;
2658;SDS011;1339;53.304;10.406;2023-04-03T07:17:03;3.13;;;2.03;;
2658;SDS011;1339;53.304;10.406;2023-04-03T07:19:30;2.63;;;1.65;;
2658;SDS011;1339;53.304;10.406;2023-04-03T07:21:57;3.38;;;2.40;;
2658;SDS011;1339;53.304;10.406;2023-04-03T07:24:24;2.75;;;1.75;;
2658;SDS011;1339;53.304;10.406;2023-04-03T07:26:51;3.13;;;1.23;;
2658;SDS011;1339;53.304;10.406;2023-04-03T07:29:19;2.33;;;1.40;;
2658;SDS011;1339;53.304;10.406;2023-04-03T07:31:46;3.47;;;1.90;;
2658;SDS011;1339;53.304;10.406;2023-04-03T07:34:15;6.55;;;2.00;;
2658;SDS011;1339;53.304;10.406;2023-04-03T07:36:42;4.25;;;1.50;;
2658;SDS011;1339;53.304;10.406;2023-04-03T07:39:09;5.47;;;1.70;;
2658;SDS011;1339;53.304;10.406;2023-04-03T07:41:36;3.08;;;1.83;;
2658;SDS011;1339;53.304;10.406;2023-04-03T07:44:03;3.20;;;1.80;;
2658;SDS011;1339;53.304;10.406;2023-04-03T07:46:30;2.60;;;2.35;;
2658;SDS011;1339;53.304;10.406;2023-04-03T07:48:58;4.57;;;1.52;;
2658;SDS011;1339;53.304;10.406;2023-04-03T07:51:26;5.38;;;1.38;;
2658;SDS011;1339;53.304;10.406;2023-04-03T07:53:54;1.88;;;1.30;;
2658;SDS011;1339;53.304;10.406;2023-04-03T07:56:21;5.18;;;1.55;;
2658;SDS011;1339;53.304;10.406;2023-04-03T07:58:50;2.38;;;1.30;;
2658;SDS011;1339;53.304;10.406;2023-04-03T08:01:16;2.60;;;1.40;;
2658;SDS011;1339;53.304;10.406;2023-04-03T08:03:43;2.25;;;1.88;;
2658;SDS011;1339;53.304;10.406;2023-04-03T08:06:10;6.65;;;1.95;;
2658;SDS011;1339;53.304;10.406;2023-04-03T08:08:41;5.25;;;1.83;;
2658;SDS011;1339;53.304;10.406;2023-04-03T08:11:09;3.17;;;1.50;;
2658;SDS011;1339;53.304;10.406;2023-04-03T08:13:36;2.85;;;1.73;;
2658;SDS011;1339;53.304;10.406;2023-04-03T08:16:07;2.00;;;1.40;;
2658;SDS011;1339;53.304;10.406;2023-04-03T08:18:34;5.32;;;2.40;;
2658;SDS011;1339;53.304;10.406;2023-04-03T08:21:01;4.07;;;3.22;;
2658;SDS011;1339;53.304;10.406;2023-04-03T08:23:31;5.28;;;2.72;;
2658;SDS011;1339;53.304;10.406;2023-04-03T08:25:59;4.05;;;2.22;;
2658;SDS011;1339;53.304;10.406;2023-04-03T08:28:31;1.45;;;1.27;;
2658;SDS011;1339;53.304;10.406;2023-04-03T08:31:02;2.42;;;1.60;;
2658;SDS011;1339;53.304;10.406;2023-04-03T08:33:29;4.90;;;1.85;;
2658;SDS011;1339;53.304;10.406;2023-04-03T08:35:56;2.83;;;1.30;;
2658;SDS011;1339;53.304;10.406;2023-04-03T08:38:23;1.35;;;1.25;;
2658;SDS011;1339;53.304;10.406;2023-04-03T08:41:00;1.85;;;1.40;;
2658;SDS011;1339;53.304;10.406;2023-04-03T08:43:30;3.85;;;1.70;;
2658;SDS011;1339;53.304;10.406;2023-04-03T08:45:59;2.83;;;1.65;;
2658;SDS011;1339;53.304;10.406;2023-04-03T08:48:28;4.60;;;1.38;;
2658;SDS011;1339;53.304;10.406;2023-04-03T08:50:57;3.33;;;1.23;;
2658;SDS011;1339;53.304;10.406;2023-04-03T08:53:26;3.72;;;1.27;;
2658;SDS011;1339;53.304;10.406;2023-04-03T08:55:57;2.15;;;1.15;;
2658;SDS011;1339;53.304;10.406;2023-04-03T08:58:26;4.80;;;1.58;;
2658;SDS011;1339;53.304;10.406;2023-04-03T09:00:56;4.35;;;1.20;;
2658;SDS011;1339;53.304;10.406;2023-04-03T09:03:23;2.92;;;1.52;;
2658;SDS011;1339;53.304;10.406;2023-04-03T09:05:52;2.72;;;1.00;;
2658;SDS011;1339;53.304;10.406;2023-04-03T09:08:23;1.60;;;1.25;;
2658;SDS011;1339;53.304;10.406;2023-04-03T09:10:52;1.92;;;1.05;;
2658;SDS011;1339;53.304;10.406;2023-04-03T09:13:24;2.65;;;1.20;;
2658;SDS011;1339;53.304;10.406;2023-04-03T09:15:54;4.60;;;2.03;;
2658;SDS011;1339;53.304;10.406;2023-04-03T09:18:23;2.78;;;1.88;;
2658;SDS011;1339;53.304;10.406;2023-04-03T09:20:53;2.15;;;1.40;;
2658;SDS011;1339;53.304;10.406;2023-04-03T09:23:24;2.22;;;0.95;;
2658;SDS011;1339;53.304;10.406;2023-04-03T09:25:56;3.22;;;2.92;;
2658;SDS011;1339;53.304;10.406;2023-04-03T09:28:24;1.90;;;1.35;;
2658;SDS011;1339;53.304;10.406;2023-04-03T09:30:51;4.63;;;1.67;;
2658;SDS011;1339;53.304;10.406;2023-04-03T09:33:20;1.95;;;1.45;;
2658;SDS011;1339;53.304;10.406;2023-04-03T09:35:47;3.70;;;1.45;;
2658;SDS011;1339;53.304;10.406;2023-04-03T09:38:16;3.40;;;1.00;;
2658;SDS011;1339;53.304;10.406;2023-04-03T09:40:44;1.63;;;0.90;;
2658;SDS011;1339;53.304;10.406;2023-04-03T09:43:22;2.97;;;1.30;;
2658;SDS011;1339;53.304;10.406;2023-04-03T09:45:50;1.15;;;0.90;;
2658;SDS011;1339;53.304;10.406;2023-04-03T09:48:18;2.92;;;1.50;;
2658;SDS011;1339;53.304;10.406;2023-04-03T09:50:56;1.75;;;1.65;;
2658;SDS011;1339;53.304;10.406;2023-04-03T09:53:28;1.55;;;1.10;;
2658;SDS011;1339;53.304;10.406;2023-04-03T09:55:56;3.45;;;1.55;;
2658;SDS011;1339;53.304;10.406;2023-04-03T09:58:24;1.67;;;1.20;;
2658;SDS011;1339;53.304;10.406;2023-04-03T10:00:53;2.28;;;0.95;;
2658;SDS011;1339;53.304;10.406;2023-04-03T10:03:23;1.70;;;1.23;;
2658;SDS011;1339;53.304;10.406;2023-04-03T10:05:51;6.18;;;1.33;;
2658;SDS011;1339;53.304;10.406;2023-04-03T10:08:22;1.65;;;1.20;;
2658;SDS011;1339;53.304;10.406;2023-04-03T10:11:04;1.65;;;1.17;;
2658;SDS011;1339;53.304;10.406;2023-04-03T10:13:32;3.28;;;1.70;;
2658;SDS011;1339;53.304;10.406;2023-04-03T10:16:00;1.70;;;1.20;;
2658;SDS011;1339;53.304;10.406;2023-04-03T10:18:31;4.05;;;1.38;;
2658;SDS011;1339;53.304;10.406;2023-04-03T10:21:00;2.17;;;1.30;;
2658;SDS011;1339;53.304;10.406;2023-04-03T10:23:31;2.72;;;1.35;;
2658;SDS011;1339;53.304;10.406;2023-04-03T10:26:02;1.33;;;1.23;;
2658;SDS011;1339;53.304;10.406;2023-04-03T10:28:38;2.55;;;1.30;;
2658;SDS011;1339;53.304;10.406;2023-04-03T10:31:11;2.58;;;1.40;;
2658;SDS011;1339;53.304;10.406;2023-04-03T10:33:44;4.95;;;1.88;;
2658;SDS011;1339;53.304;10.406;2023-04-03T10:36:17;4.15;;;1.55;;
2658;SDS011;1339;53.304;10.406;2023-04-03T10:38:51;2.88;;;1.50;;
2658;SDS011;1339;53.304;10.406;2023-04-03T10:41:22;1.52;;;1.10;;
2658;SDS011;1339;53.304;10.406;2023-04-03T10:43:53;2.10;;;1.40;;
2658;SDS011;1339;53.304;10.406;2023-04-03T10:46:22;2.50;;;1.45;;
2658;SDS011;1339;53.304;10.406;2023-04-03T10:48:55;2.75;;;1.65;;
2658;SDS011;1339;53.304;10.406;2023-04-03T10:51:28;1.20;;;1.10;;
2658;SDS011;1339;53.304;10.406;2023-04-03T10:53:59;1.65;;;1.10;;
2658;SDS011;1339;53.304;10.406;2023-04-03T10:56:30;1.45;;;1.35;;
2658;SDS011;1339;53.304;10.406;2023-04-03T10:58:58;2.80;;;1.10;;
2658;SDS011;1339;53.304;10.406;2023-04-03T11:01:30;2.58;;;1.40;;
2658;SDS011;1339;53.304;10.406;2023-04-03T11:03:58;3.25;;;1.25;;
2658;SDS011;1339;53.304;10.406;2023-04-03T11:06:27;1.58;;;1.17;;
2658;SDS011;1339;53.304;10.406;2023-04-03T11:09:00;2.75;;;1.35;;
2658;SDS011;1339;53.304;10.406;2023-04-03T11:11:32;2.03;;;1.27;;
2658;SDS011;1339;53.304;10.406;2023-04-03T11:14:02;2.53;;;1.17;;
2658;SDS011;1339;53.304;10.406;2023-04-03T11:16:30;3.10;;;1.40;;
2658;SDS011;1339;53.304;10.406;2023-04-03T11:18:59;2.75;;;1.35;;
2658;SDS011;1339;53.304;10.406;2023-04-03T11:21:28;1.70;;;1.00;;
2658;SDS011;1339;53.304;10.406;2023-04-03T11:23:56;2.97;;;1.45;;
2658;SDS011;1339;53.304;10.406;2023-04-03T11:26:26;1.50;;;0.90;;
2658;SDS011;1339;53.304;10.406;2023-04-03T11:28:56;1.20;;;1.10;;
2658;SDS011;1339;53.304;10.406;2023-04-03T11:31:28;3.08;;;1.20;;
2658;SDS011;1339;53.304;10.406;2023-04-03T11:33:58;2.22;;;1.65;;
2658;SDS011;1339;53.304;10.406;2023-04-03T11:36:30;2.28;;;1.10;;
2658;SDS011;1339;53.304;10.406;2023-04-03T11:39:02;2.85;;;1.40;;
2658;SDS011;1339;53.304;10.406;2023-04-03T11:41:35;4.30;;;1.80;;
2658;SDS011;1339;53.304;10.406;2023-04-03T11:44:03;3.90;;;1.83;;
2658;SDS011;1339;53.304;10.406;2023-04-03T11:51:58;1.58;;;1.40;;
2658;SDS011;1339;53.304;10.406;2023-04-03T11:54:35;2.45;;;1.45;;
2658;SDS011;1339;53.304;10.406;2023-04-03T11:59:45;1.75;;;1.02;;
2658;SDS011;1339;53.304;10.406;2023-04-03T12:07:37;1.70;;;1.23;;
2658;SDS011;1339;53.304;10.406;2023-04-03T12:10:14;3.03;;;1.50;;
2658;SDS011;1339;53.304;10.406;2023-04-03T12:12:43;1.92;;;1.00;;
2658;SDS011;1339;53.304;10.406;2023-04-03T12:21:17;3.80;;;1.42;;
2658;SDS011;1339;53.304;10.406;2023-04-03T12:23:57;2.00;;;1.23;;
2658;SDS011;1339;53.304;10.406;2023-04-03T12:26:25;2.05;;;1.10;;
2658;SDS011;1339;53.304;10.406;2023-04-03T12:28:54;1.50;;;0.90;;
2658;SDS011;1339;53.304;10.406;2023-04-03T12:31:22;4.40;;;1.25;;
2658;SDS011;1339;53.304;10.406;2023-04-03T12:34:04;5.18;;;1.42;;
2658;SDS011;1339;53.304;10.406;2023-04-03T12:36:37;3.00;;;2.00;;
2658;SDS011;1339;53.304;10.406;2023-04-03T12:39:13;5.60;;;1.50;;
2658;SDS011;1339;53.304;10.406;2023-04-03T12:41:45;2.58;;;1.33;;
2658;SDS011;1339;53.304;10.406;2023-04-03T12:46:55;4.88;;;3.17;;
2658;SDS011;1339;53.304;10.406;2023-04-03T12:49:30;2.75;;;1.05;;
2658;SDS011;1339;53.304;10.406;2023-04-03T12:52:01;3.97;;;1.40;;
2658;SDS011;1339;53.304;10.406;2023-04-03T12:54:31;3.92;;;1.38;;
2658;SDS011;1339;53.304;10.406;2023-04-03T12:57:09;2.05;;;1.42;;
2658;SDS011;1339;53.304;10.406;2023-04-03T12:59:37;3.00;;;1.38;;
2658;SDS011;1339;53.304;10.406;2023-04-03T13:02:09;1.52;;;1.02;;
2658;SDS011;1339;53.304;10.406;2023-04-03T13:04:37;2.97;;;1.30;;
2658;SDS011;1339;53.304;10.406;2023-04-03T13:07:17;2.03;;;0.80;;
2658;SDS011;1339;53.304;10.406;2023-04-03T13:09:47;2.55;;;1.38;;
2658;SDS011;1339;53.304;10.406;2023-04-03T13:12:21;2.08;;;0.90;;
2658;SDS011;1339;53.304;10.406;2023-04-03T13:14:51;2.10;;;1.40;;
2658;SDS011;1339;53.304;10.406;2023-04-03T13:17:18;1.55;;;1.20;;
2658;SDS011;1339;53.304;10.406;2023-04-03T13:19:46;1.65;;;1.10;;
2658;SDS011;1339;53.304;10.406;2023-04-03T13:22:18;1.98;;;1.27;;
2658;SDS011;1339;53.304;10.406;2023-04-03T13:24:48;2.08;;;1.05;;
2658;SDS011;1339;53.304;10.406;2023-04-03T13:27:16;1.95;;;1.63;;
2658;SDS011;1339;53.304;10.406;2023-04-03T13:29:43;1.75;;;1.33;;
2658;SDS011;1339;53.304;10.406;2023-04-03T13:32:13;2.15;;;1.13;;
2658;SDS011;1339;53.304;10.406;2023-04-03T13:34:43;2.65;;;1.00;;
2658;SDS011;1339;53.304;10.406;2023-04-03T13:37:20;2.80;;;1.40;;
2658;SDS011;1339;53.304;10.406;2023-04-03T13:39:56;2.55;;;1.23;;
2658;SDS011;1339;53.304;10.406;2023-04-03T13:42:24;1.45;;;1.10;;
2658;SDS011;1339;53.304;10.406;2023-04-03T13:45:07;2.70;;;1.27;;
2658;SDS011;1339;53.304;10.406;2023-04-03T13:47:37;3.13;;;1.58;;
2658;SDS011;1339;53.304;10.406;2023-04-03T13:50:13;2.38;;;1.10;;
2658;SDS011;1339;53.304;10.406;2023-04-03T13:52:42;1.10;;;0.90;;
2658;SDS011;1339;53.304;10.406;2023-04-03T13:55:18;1.88;;;0.95;;
2658;SDS011;1339;53.304;10.406;2023-04-03T13:57:49;2.55;;;1.00;;
2658;SDS011;1339;53.304;10.406;2023-04-03T14:00:21;2.60;;;1.20;;
2658;SDS011;1339;53.304;10.406;2023-04-03T14:02:48;1.15;;;0.90;;
2658;SDS011;1339;53.304;10.406;2023-04-03T14:05:15;1.45;;;1.35;;
2658;SDS011;1339;53.304;10.406;2023-04-03T14:07:47;2.15;;;1.10;;
2658;SDS011;1339;53.304;10.406;2023-04-03T14:10:14;2.40;;;1.10;;
2658;SDS011;1339;53.304;10.406;2023-04-03T14:12:41;1.73;;;1.40;;
2658;SDS011;1339;53.304;10.406;2023-04-03T14:15:12;1.98;;;1.00;;
2658;SDS011;1339;53.304;10.406;2023-04-03T14:17:42;2.10;;;1.50;;
2658;SDS011;1339;53.304;10.406;2023-04-03T14:20:10;2.85;;;1.17;;
2658;SDS011;1339;53.304;10.406;2023-04-03T14:22:40;2.83;;;1.05;;
2658;SDS011;1339;53.304;10.406;2023-04-03T14:25:08;1.75;;;0.90;;
2658;SDS011;1339;53.304;10.406;2023-04-03T14:27:37;1.00;;;0.82;;
2658;SDS011;1339;53.304;10.406;2023-04-03T14:30:05;2.17;;;1.05;;
2658;SDS011;1339;53.304;10.406;2023-04-03T14:32:32;1.05;;;0.70;;
2658;SDS011;1339;53.304;10.406;2023-04-03T14:34:59;2.90;;;1.25;;
2658;SDS011;1339;53.304;10.406;2023-04-03T14:37:27;1.40;;;1.23;;
2658;SDS011;1339;53.304;10.406;2023-04-03T14:39:55;1.00;;;0.80;;
2658;SDS011;1339;53.304;10.406;2023-04-03T14:42:25;1.33;;;1.00;;
2658;SDS011;1339;53.304;10.406;2023-04-03T14:44:52;4.10;;;1.45;;
2658;SDS011;1339;53.304;10.406;2023-04-03T14:47:20;1.10;;;0.80;;
2658;SDS011;1339;53.304;10.406;2023-04-03T14:49:47;4.13;;;1.20;;
2658;SDS011;1339;53.304;10.406;2023-04-03T14:52:16;1.38;;;0.95;;
2658;SDS011;1339;53.304;10.406;2023-04-03T14:54:44;2.50;;;1.00;;
2658;SDS011;1339;53.304;10.406;2023-04-03T14:57:11;2.53;;;1.00;;
2658;SDS011;1339;53.304;10.406;2023-04-03T14:59:41;1.42;;;1.10;;
2658;SDS011;1339;53.304;10.406;2023-04-03T15:02:21;1.48;;;1.00;;
2658;SDS011;1339;53.304;10.406;2023-04-03T15:04:50;1.40;;;1.30;;
2658;SDS011;1339;53.304;10.406;2023-04-03T15:07:17;1.60;;;0.95;;
2658;SDS011;1339;53.304;10.406;2023-04-03T15:09:44;1.60;;;1.05;;
2658;SDS011;1339;53.304;10.406;2023-04-03T15:12:11;2.60;;;0.98;;
2658;SDS011;1339;53.304;10.406;2023-04-03T15:14:39;1.23;;;0.90;;
2658;SDS011;1339;53.304;10.406;2023-04-03T15:17:08;1.20;;;0.80;;
2658;SDS011;1339;53.304;10.406;2023-04-03T15:19:40;1.95;;;1.20;;
2658;SDS011;1339;53.304;10.406;2023-04-03T15:22:08;1.20;;;0.88;;
2658;SDS011;1339;53.304;10.406;2023-04-03T15:24:36;1.65;;;1.20;;
2658;SDS011;1339;53.304;10.406;2023-04-03T15:27:03;1.90;;;1.70;;
2658;SDS011;1339;53.304;10.406;2023-04-03T15:29:30;1.45;;;0.80;;
2658;SDS011;1339;53.304;10.406;2023-04-03T15:31:57;2.47;;;1.40;;